Westrac — WTH4325 — position and weather

sailwx.info

Track history (hours):
 
Tides and Currents Weather Stations Pressure Air Temp Water Temp Dewpoint Dewpoint Depression Visibility Wind Speed Wind Dir Waves Ship Positions

Westrac

Owner: WESTERN TOWBOAT CO, SEATTLE, WA. More information available from US FCC via Universal Licensing System and Coast Guard Vessel Documentation Center.

Last reported at 2017-Mar-24 01:33 UTC. Time now 2017-Mar-24 06:14 UTC.
Position N 47°36' W 122°22'.

Length 23 m; draft 5 m.

Type: Tug. MMSI: 366993010.

Date/timePositionNaut miles runAvg speedWind from/ knotsBaromVisibWave heightAir tempDewpointWater temp
2017-Mar-24 01:33N 47°36' W 122°22'3 2.5
2017-Mar-24 00:33N 47°33' W 122°21'1 0.8
2017-Mar-23 23:33N 47°34' W 122°21'0 0.0
2017-Mar-23 22:33N 47°34' W 122°21'0 0.0
2017-Mar-23 21:33N 47°34' W 122°21'0 0.0
2017-Mar-23 20:33N 47°34' W 122°21'0 0.0
2017-Mar-23 19:33N 47°34' W 122°21'0 0.0
2017-Mar-23 18:33N 47°34' W 122°21'0 0.0
2017-Mar-23 17:33N 47°34' W 122°21'0 0.0
2017-Mar-23 16:33N 47°34' W 122°21'0 0.0
2017-Mar-23 15:33N 47°34' W 122°21'0 0.0
2017-Mar-23 14:33N 47°34' W 122°21'1 1.2
2017-Mar-23 13:34N 47°35' W 122°21'0 0.0
2017-Mar-23 12:33N 47°35' W 122°21'1 0.1
2017-Mar-23 02:15N 47°34' W 122°21'0 0.7
2017-Mar-23 01:33N 47°34' W 122°21'1 1.0
2017-Mar-23 00:34N 47°35' W 122°22'2 2.4
2017-Mar-22 23:33N 47°33' W 122°20'0 0.0
2017-Mar-22 22:34N 47°33' W 122°20'1 1.0
2017-Mar-22 21:34N 47°34' W 122°21'1 1.5
2017-Mar-22 20:33N 47°35' W 122°21'1 1.5
2017-Mar-22 19:33N 47°34' W 122°21'1 1.4
2017-Mar-22 18:34N 47°35' W 122°21'0 0.3
2017-Mar-22 17:33N 47°36' W 122°21'0 0.3
2017-Mar-22 16:33N 47°35' W 122°20'1 0.6
2017-Mar-22 15:33N 47°35' W 122°21'2 2.0
2017-Mar-22 14:34N 47°33' W 122°21'2 0.1
2017-Mar-22 00:34N 47°35' W 122°22'1 0.7
2017-Mar-21 23:33N 47°36' W 122°21'1 1.4
2017-Mar-21 22:33N 47°34' W 122°21'0 0.2
2017-Mar-21 21:33N 47°34' W 122°21'0 0.5
2017-Mar-21 20:33N 47°34' W 122°21'0 0.4
2017-Mar-21 19:34N 47°34' W 122°21'0 0.0
2017-Mar-21 18:34N 47°34' W 122°21'0 0.0
2017-Mar-21 17:34N 47°34' W 122°21'2 1.5
2017-Mar-21 16:34N 47°33' W 122°20'0 0.2
2017-Mar-21 15:34N 47°33' W 122°20'0 0.1
2017-Mar-21 14:34N 47°33' W 122°20'1 1.1
2017-Mar-21 13:34N 47°34' W 122°21'0 0.0
2017-Mar-21 12:34N 47°34' W 122°21'0 0.0
2017-Mar-21 11:33N 47°34' W 122°21'0 0.0
2017-Mar-21 10:33N 47°34' W 122°21'0 0.0
2017-Mar-21 09:33N 47°34' W 122°21'0 0.0
2017-Mar-21 08:33N 47°34' W 122°21'0 0.0
2017-Mar-21 07:34N 47°34' W 122°21'0 0.0
2017-Mar-21 06:33N 47°34' W 122°21'0 0.0
2017-Mar-21 05:33N 47°34' W 122°21'0 0.0
2017-Mar-21 04:33N 47°34' W 122°21'0 0.0
2017-Mar-21 03:33N 47°34' W 122°21'0 0.0
2017-Mar-21 02:33N 47°34' W 122°21'0 0.0
2017-Mar-21 01:34N 47°34' W 122°21'0 0.0
2017-Mar-21 00:34N 47°34' W 122°21'1 1.1
2017-Mar-20 23:34N 47°35' W 122°22'1 1.1
2017-Mar-20 22:34N 47°34' W 122°21'1 0.7
2017-Mar-20 21:34N 47°33' W 122°21'0 0.2
2017-Mar-20 20:34N 47°34' W 122°21'1 1.5
2017-Mar-20 19:33N 47°35' W 122°22'2 1.6
2017-Mar-20 18:34N 47°33' W 122°21'0 0.0
2017-Mar-20 17:34N 47°33' W 122°21'2 2.3
2017-Mar-20 16:34N 47°35' W 122°22'2 2.5
2017-Mar-20 15:33N 47°33' W 122°21'1 1.0
2017-Mar-20 14:33N 47°34' W 122°21'1 1.2
2017-Mar-20 13:33N 47°35' W 122°21'2 2.2
2017-Mar-20 12:34N 47°33' W 122°20'1 1.0
2017-Mar-20 11:34N 47°34' W 122°21'1 0.1
2017-Mar-20 03:33N 47°33' W 122°21'1 1.0
2017-Mar-20 02:33N 47°34' W 122°21'0 0.0
2017-Mar-19 17:13N 47°34' W 122°21'1 1.5
2017-Mar-19 16:34N 47°33' W 122°21'1 1.0
2017-Mar-19 15:34N 47°34' W 122°21'0 0.0
2017-Mar-19 14:34N 47°34' W 122°21'0 0.0
2017-Mar-19 13:33N 47°34' W 122°21'0 0.0
2017-Mar-19 12:34N 47°34' W 122°21'0 0.0
2017-Mar-19 11:33N 47°34' W 122°21'1 1.0
2017-Mar-19 10:34N 47°33' W 122°21'1 1.0
2017-Mar-19 09:33N 47°34' W 122°21'0 0.0
2017-Mar-19 08:34N 47°34' W 122°21'0 0.0
2017-Mar-19 07:34N 47°34' W 122°21'0 0.0
2017-Mar-19 06:33N 47°34' W 122°21'0 0.0
2017-Mar-19 01:30N 47°34' W 122°21'0 0.0
2017-Mar-19 00:33N 47°34' W 122°21'1 0.7
2017-Mar-18 23:33N 47°33' W 122°21'1 0.7
2017-Mar-18 22:34N 47°34' W 122°21'0 0.0
2017-Mar-18 21:33N 47°34' W 122°21'0 0.0
2017-Mar-18 20:34N 47°34' W 122°21'0 0.0
2017-Mar-18 19:34N 47°34' W 122°21'0 0.0
2017-Mar-18 18:34N 47°34' W 122°21'1 0.9
2017-Mar-18 17:34N 47°35' W 122°22'2 1.8
2017-Mar-18 16:34N 47°33' W 122°21'1 0.9
2017-Mar-18 15:33N 47°34' W 122°21'2 1.8
2017-Mar-18 14:34N 47°36' W 122°22'2 0.1
2017-Mar-18 02:04N 47°34' W 122°21'1 2.9
2017-Mar-18 01:33N 47°35' W 122°22'1 1.0
2017-Mar-18 00:34N 47°34' W 122°21'2 1.5
2017-Mar-17 23:33N 47°33' W 122°20'0 0.1
2017-Mar-17 22:33N 47°33' W 122°20'0 0.4
2017-Mar-17 21:33N 47°33' W 122°20'1 1.5
2017-Mar-17 20:33N 47°34' W 122°21'0 0.0
2017-Mar-17 19:33N 47°34' W 122°21'1 1.0
2017-Mar-17 18:33N 47°33' W 122°21'4 3.8
2017-Mar-17 17:34N 47°37' W 122°22'3 2.8
2017-Mar-17 16:33N 47°34' W 122°21'1 1.1
2017-Mar-17 15:33N 47°33' W 122°20'2 2.0
2017-Mar-17 14:33N 47°35' W 122°22'2 0.1
2017-Mar-17 02:33N 47°33' W 122°21'2 2.2
2017-Mar-17 01:33N 47°35' W 122°22'2 2.2
2017-Mar-17 00:33N 47°33' W 122°21'1 0.0
2017-Mar-16 01:13N 47°34' W 122°21'0 0.7
2017-Mar-16 00:33N 47°34' W 122°21'1 1.4
2017-Mar-15 23:33N 47°33' W 122°20'1 0.7
2017-Mar-15 22:33N 47°34' W 122°21'3 2.5
2017-Mar-15 21:33N 47°36' W 122°23'2 1.9
2017-Mar-15 20:33N 47°34' W 122°21'0 0.1
2017-Mar-15 19:33N 47°34' W 122°21'1 1.1
2017-Mar-15 18:33N 47°33' W 122°21'0 0.0
2017-Mar-15 17:33N 47°33' W 122°21'1 0.5
2017-Mar-15 16:33N 47°33' W 122°20'3 3.1
2017-Mar-15 15:33N 47°36' W 122°22'2 2.2
2017-Mar-15 14:33N 47°34' W 122°21'0 0.0
2017-Mar-14 19:33N 47°33' W 122°21'3 2.5
2017-Mar-14 18:33N 47°36' W 122°22'1 1.1
2017-Mar-14 17:34N 47°35' W 122°20'1 0.7
2017-Mar-14 16:33N 47°36' W 122°21'2 1.7
2017-Mar-14 15:34N 47°34' W 122°21'  
Track history (hours):
 
Tides and Currents Weather Stations Pressure Air Temp Water Temp Dewpoint Dewpoint Depression Visibility Wind Speed Wind Dir Waves Ship Positions

Westrac

Owner: WESTERN TOWBOAT CO, SEATTLE, WA. More information available from US FCC via Universal Licensing System and Coast Guard Vessel Documentation Center.

Last reported at 2017-Mar-24 01:33 UTC. Time now 2017-Mar-24 06:14 UTC.
Position N 47°36' W 122°22'.

Length 23 m; draft 5 m.

Type: Tug. MMSI: 366993010.

Date/timePositionNaut miles runAvg speedWind from/ knotsBaromVisibWave heightAir tempDewpointWater temp
2017-Mar-24 01:33N 47°36' W 122°22'3 2.5
2017-Mar-24 00:33N 47°33' W 122°21'1 0.8
2017-Mar-23 23:33N 47°34' W 122°21'0 0.0
2017-Mar-23 22:33N 47°34' W 122°21'0 0.0
2017-Mar-23 21:33N 47°34' W 122°21'0 0.0
2017-Mar-23 20:33N 47°34' W 122°21'0 0.0
2017-Mar-23 19:33N 47°34' W 122°21'0 0.0
2017-Mar-23 18:33N 47°34' W 122°21'0 0.0
2017-Mar-23 17:33N 47°34' W 122°21'0 0.0
2017-Mar-23 16:33N 47°34' W 122°21'0 0.0
2017-Mar-23 15:33N 47°34' W 122°21'0 0.0
2017-Mar-23 14:33N 47°34' W 122°21'1 1.2
2017-Mar-23 13:34N 47°35' W 122°21'0 0.0
2017-Mar-23 12:33N 47°35' W 122°21'1 0.1
2017-Mar-23 02:15N 47°34' W 122°21'0 0.7
2017-Mar-23 01:33N 47°34' W 122°21'1 1.0
2017-Mar-23 00:34N 47°35' W 122°22'2 2.4
2017-Mar-22 23:33N 47°33' W 122°20'0 0.0
2017-Mar-22 22:34N 47°33' W 122°20'1 1.0
2017-Mar-22 21:34N 47°34' W 122°21'1 1.5
2017-Mar-22 20:33N 47°35' W 122°21'1 1.5
2017-Mar-22 19:33N 47°34' W 122°21'1 1.4
2017-Mar-22 18:34N 47°35' W 122°21'0 0.3
2017-Mar-22 17:33N 47°36' W 122°21'0 0.3
2017-Mar-22 16:33N 47°35' W 122°20'1 0.6
2017-Mar-22 15:33N 47°35' W 122°21'2 2.0
2017-Mar-22 14:34N 47°33' W 122°21'2 0.1
2017-Mar-22 00:34N 47°35' W 122°22'1 0.7
2017-Mar-21 23:33N 47°36' W 122°21'1 1.4
2017-Mar-21 22:33N 47°34' W 122°21'0 0.2
2017-Mar-21 21:33N 47°34' W 122°21'0 0.5
2017-Mar-21 20:33N 47°34' W 122°21'0 0.4
2017-Mar-21 19:34N 47°34' W 122°21'0 0.0
2017-Mar-21 18:34N 47°34' W 122°21'0 0.0
2017-Mar-21 17:34N 47°34' W 122°21'2 1.5
2017-Mar-21 16:34N 47°33' W 122°20'0 0.2
2017-Mar-21 15:34N 47°33' W 122°20'0 0.1
2017-Mar-21 14:34N 47°33' W 122°20'1 1.1
2017-Mar-21 13:34N 47°34' W 122°21'0 0.0
2017-Mar-21 12:34N 47°34' W 122°21'0 0.0
2017-Mar-21 11:33N 47°34' W 122°21'0 0.0
2017-Mar-21 10:33N 47°34' W 122°21'0 0.0
2017-Mar-21 09:33N 47°34' W 122°21'0 0.0
2017-Mar-21 08:33N 47°34' W 122°21'0 0.0
2017-Mar-21 07:34N 47°34' W 122°21'0 0.0
2017-Mar-21 06:33N 47°34' W 122°21'0 0.0
2017-Mar-21 05:33N 47°34' W 122°21'0 0.0
2017-Mar-21 04:33N 47°34' W 122°21'0 0.0
2017-Mar-21 03:33N 47°34' W 122°21'0 0.0
2017-Mar-21 02:33N 47°34' W 122°21'0 0.0
2017-Mar-21 01:34N 47°34' W 122°21'0 0.0
2017-Mar-21 00:34N 47°34' W 122°21'1 1.1
2017-Mar-20 23:34N 47°35' W 122°22'1 1.1
2017-Mar-20 22:34N 47°34' W 122°21'1 0.7
2017-Mar-20 21:34N 47°33' W 122°21'0 0.2
2017-Mar-20 20:34N 47°34' W 122°21'1 1.5
2017-Mar-20 19:33N 47°35' W 122°22'2 1.6
2017-Mar-20 18:34N 47°33' W 122°21'0 0.0
2017-Mar-20 17:34N 47°33' W 122°21'2 2.3
2017-Mar-20 16:34N 47°35' W 122°22'2 2.5
2017-Mar-20 15:33N 47°33' W 122°21'1 1.0
2017-Mar-20 14:33N 47°34' W 122°21'1 1.2
2017-Mar-20 13:33N 47°35' W 122°21'2 2.2
2017-Mar-20 12:34N 47°33' W 122°20'1 1.0
2017-Mar-20 11:34N 47°34' W 122°21'1 0.1
2017-Mar-20 03:33N 47°33' W 122°21'1 1.0
2017-Mar-20 02:33N 47°34' W 122°21'0 0.0
2017-Mar-19 17:13N 47°34' W 122°21'1 1.5
2017-Mar-19 16:34N 47°33' W 122°21'1 1.0
2017-Mar-19 15:34N 47°34' W 122°21'0 0.0
2017-Mar-19 14:34N 47°34' W 122°21'0 0.0
2017-Mar-19 13:33N 47°34' W 122°21'0 0.0
2017-Mar-19 12:34N 47°34' W 122°21'0 0.0
2017-Mar-19 11:33N 47°34' W 122°21'1 1.0
2017-Mar-19 10:34N 47°33' W 122°21'1 1.0
2017-Mar-19 09:33N 47°34' W 122°21'0 0.0
2017-Mar-19 08:34N 47°34' W 122°21'0 0.0
2017-Mar-19 07:34N 47°34' W 122°21'0 0.0
2017-Mar-19 06:33N 47°34' W 122°21'0 0.0
2017-Mar-19 01:30N 47°34' W 122°21'0 0.0
2017-Mar-19 00:33N 47°34' W 122°21'1 0.7
2017-Mar-18 23:33N 47°33' W 122°21'1 0.7
2017-Mar-18 22:34N 47°34' W 122°21'0 0.0
2017-Mar-18 21:33N 47°34' W 122°21'0 0.0
2017-Mar-18 20:34N 47°34' W 122°21'0 0.0
2017-Mar-18 19:34N 47°34' W 122°21'0 0.0
2017-Mar-18 18:34N 47°34' W 122°21'1 0.9
2017-Mar-18 17:34N 47°35' W 122°22'2 1.8
2017-Mar-18 16:34N 47°33' W 122°21'1 0.9
2017-Mar-18 15:33N 47°34' W 122°21'2 1.8
2017-Mar-18 14:34N 47°36' W 122°22'2 0.1
2017-Mar-18 02:04N 47°34' W 122°21'1 2.9
2017-Mar-18 01:33N 47°35' W 122°22'1 1.0
2017-Mar-18 00:34N 47°34' W 122°21'2 1.5
2017-Mar-17 23:33N 47°33' W 122°20'0 0.1
2017-Mar-17 22:33N 47°33' W 122°20'0 0.4
2017-Mar-17 21:33N 47°33' W 122°20'1 1.5
2017-Mar-17 20:33N 47°34' W 122°21'0 0.0
2017-Mar-17 19:33N 47°34' W 122°21'1 1.0
2017-Mar-17 18:33N 47°33' W 122°21'4 3.8
2017-Mar-17 17:34N 47°37' W 122°22'3 2.8
2017-Mar-17 16:33N 47°34' W 122°21'1 1.1
2017-Mar-17 15:33N 47°33' W 122°20'2 2.0
2017-Mar-17 14:33N 47°35' W 122°22'2 0.1
2017-Mar-17 02:33N 47°33' W 122°21'2 2.2
2017-Mar-17 01:33N 47°35' W 122°22'2 2.2
2017-Mar-17 00:33N 47°33' W 122°21'1 0.0
2017-Mar-16 01:13N 47°34' W 122°21'0 0.7
2017-Mar-16 00:33N 47°34' W 122°21'1 1.4
2017-Mar-15 23:33N 47°33' W 122°20'1 0.7
2017-Mar-15 22:33N 47°34' W 122°21'3 2.5
2017-Mar-15 21:33N 47°36' W 122°23'2 1.9
2017-Mar-15 20:33N 47°34' W 122°21'0 0.1
2017-Mar-15 19:33N 47°34' W 122°21'1 1.1
2017-Mar-15 18:33N 47°33' W 122°21'0 0.0
2017-Mar-15 17:33N 47°33' W 122°21'1 0.5
2017-Mar-15 16:33N 47°33' W 122°20'3 3.1
2017-Mar-15 15:33N 47°36' W 122°22'2 2.2
2017-Mar-15 14:33N 47°34' W 122°21'0 0.0
2017-Mar-14 19:33N 47°33' W 122°21'3 2.5
2017-Mar-14 18:33N 47°36' W 122°22'1 1.1
2017-Mar-14 17:34N 47°35' W 122°20'1 0.7
2017-Mar-14 16:33N 47°36' W 122°21'2 1.7
2017-Mar-14 15:34N 47°34' W 122°21'  

Dump ship's entire track history